Time;durP1;ratioP1;P1;durP2;ratioP2;P2;SDS_P1;SDS_P2;PMS_P1;PMS_P2;Temp;Humidity;BMP_temperature;BMP_pressure;BME280_temperature;BME280_humidity;BME280_pressure;Samples;Min_cycle;Max_cycle;Signal;HPM_P1;HPM_P2
2022/05/30 00:00:07;;;;;;;;;;;25.90;43.10;;;;;;679593;28;1205;-84
2022/05/30 00:00:28;;;;;;;;;;;25.90;42.90;;;;;;679651;28;1638;-85
2022/05/30 00:00:50;;;;;;;;;;;25.90;43.00;;;;;;679654;28;1407;-84
2022/05/30 00:01:16;;;;;;;;;;;25.90;43.10;;;;;;679758;28;1238;-84
2022/05/30 00:01:36;;;;;;;;;;;25.90;43.00;;;;;;679000;28;1270;-87
2022/05/30 00:01:57;;;;;;;;;;;25.90;43.00;;;;;;678820;28;1363;-83
2022/05/30 00:02:17;;;;;;;;;;;25.90;43.00;;;;;;678695;28;1415;-83
2022/05/30 00:02:38;;;;;;;;;;;25.90;43.00;;;;;;679151;28;1198;-84
2022/05/30 00:02:59;;;;;;;;;;;25.90;43.00;;;;;;676410;29;1326;-83
2022/05/30 00:03:20;;;;;;;;;;;25.90;43.00;;;;;;676713;29;1832;-85
2022/05/30 00:03:41;;;;;;;;;;;25.90;42.90;;;;;;676276;29;1357;-84
2022/05/30 00:04:01;;;;;;;;;;;25.90;42.80;;;;;;676217;29;1526;-81
2022/05/30 00:04:22;;;;;;;;;;;25.90;42.80;;;;;;676864;29;1293;-85
2022/05/30 00:04:43;;;;;;;;;;;25.90;42.90;;;;;;675975;29;1848;-83
2022/05/30 00:05:04;;;;;;;;;;;25.90;42.70;;;;;;679099;28;1428;-85
2022/05/30 00:05:25;;;;;;;;;;;25.90;42.80;;;;;;679301;28;1201;-86
2022/05/30 00:05:46;;;;;;;;;;;25.90;42.80;;;;;;679122;28;1218;-83
2022/05/30 00:06:08;;;;;;;;;;;25.90;42.80;;;;;;678618;28;1512;-85
2022/05/30 00:06:29;;;;;;;;;;;25.90;42.80;;;;;;678594;28;1324;-87
2022/05/30 00:06:49;;;;;;;;;;;25.90;42.90;;;;;;678685;28;1214;-85
2022/05/30 00:07:11;;;;;;;;;;;25.90;42.80;;;;;;678761;28;1346;-80
2022/05/30 00:07:32;;;;;;;;;;;25.90;42.80;;;;;;678637;28;1258;-84
2022/05/30 00:07:52;;;;;;;;;;;25.90;42.90;;;;;;675821;29;1270;-84
2022/05/30 00:08:13;;;;;;;;;;;25.90;42.80;;;;;;676044;29;1486;-84
2022/05/30 00:08:34;;;;;;;;;;;26.00;42.80;;;;;;676134;29;1242;-83
2022/05/30 00:08:55;;;;;;;;;;;26.00;42.80;;;;;;676009;29;1257;-84
2022/05/30 00:09:16;;;;;;;;;;;25.90;42.80;;;;;;676445;29;1254;-83
2022/05/30 00:09:36;;;;;;;;;;;26.00;42.90;;;;;;676382;29;1285;-84
2022/05/30 00:09:57;;;;;;;;;;;25.90;42.70;;;;;;678581;28;1361;-85
2022/05/30 00:10:19;;;;;;;;;;;26.00;43.00;;;;;;679267;28;1539;-81
2022/05/30 00:10:40;;;;;;;;;;;26.00;42.90;;;;;;678791;28;1421;-83
2022/05/30 00:11:02;;;;;;;;;;;26.00;42.80;;;;;;678757;28;1349;-86
2022/05/30 00:11:23;;;;;;;;;;;26.00;42.70;;;;;;678941;28;1293;-84
2022/05/30 00:11:43;;;;;;;;;;;26.00;42.70;;;;;;678843;28;1906;-86
2022/05/30 00:12:04;;;;;;;;;;;26.00;42.60;;;;;;678595;28;1496;-86
2022/05/30 00:12:25;;;;;;;;;;;26.00;42.70;;;;;;678933;28;1254;-85
2022/05/30 00:12:45;;;;;;;;;;;26.00;42.60;;;;;;678800;28;1249;-82
2022/05/30 00:13:06;;;;;;;;;;;26.00;42.90;;;;;;678745;28;1346;-85
2022/05/30 00:13:27;;;;;;;;;;;26.00;42.70;;;;;;678997;28;1242;-84
2022/05/30 00:13:48;;;;;;;;;;;26.00;42.70;;;;;;678821;28;1194;-86
2022/05/30 00:14:09;;;;;;;;;;;26.00;42.70;;;;;;678848;28;1338;-85
2022/05/30 00:14:29;;;;;;;;;;;25.90;42.60;;;;;;679051;28;1328;-85
2022/05/30 00:14:50;;;;;;;;;;;26.00;42.80;;;;;;679151;28;1187;-85
2022/05/30 00:15:11;;;;;;;;;;;26.00;42.90;;;;;;678974;28;1426;-86
2022/05/30 00:15:32;;;;;;;;;;;26.00;42.60;;;;;;678911;28;1336;-83
2022/05/30 00:15:53;;;;;;;;;;;26.00;42.80;;;;;;679810;28;1236;-84
2022/05/30 00:16:15;;;;;;;;;;;26.00;42.80;;;;;;679442;28;1392;-86
2022/05/30 00:16:36;;;;;;;;;;;26.00;42.60;;;;;;679396;29;1228;-85
2022/05/30 00:16:57;;;;;;;;;;;26.00;42.70;;;;;;679706;28;2015;-86
2022/05/30 00:17:17;;;;;;;;;;;26.00;42.60;;;;;;680092;28;1215;-86
2022/05/30 00:17:38;;;;;;;;;;;26.00;42.70;;;;;;680097;28;1301;-85
2022/05/30 00:17:58;;;;;;;;;;;26.10;42.70;;;;;;683035;29;899;-84
2022/05/30 00:18:19;;;;;;;;;;;26.00;42.70;;;;;;682552;29;1362;-86
2022/05/30 00:18:40;;;;;;;;;;;26.00;42.60;;;;;;683146;29;878;-87
2022/05/30 00:19:00;;;;;;;;;;;26.00;42.50;;;;;;682999;29;843;-86
2022/05/30 00:19:21;;;;;;;;;;;26.00;42.50;;;;;;683165;29;804;-87
2022/05/30 00:19:41;;;;;;;;;;;26.00;42.80;;;;;;681533;29;1362;-88
2022/05/30 00:20:02;;;;;;;;;;;26.00;42.60;;;;;;680422;29;788;-88
2022/05/30 00:20:24;;;;;;;;;;;26.00;42.60;;;;;;680413;29;827;-85
2022/05/30 00:20:45;;;;;;;;;;;26.00;42.50;;;;;;680267;29;942;-88
2022/05/30 00:21:06;;;;;;;;;;;26.00;42.30;;;;;;682167;29;1426;-86
2022/05/30 00:21:26;;;;;;;;;;;26.00;42.30;;;;;;682935;29;1684;-88
2022/05/30 00:21:47;;;;;;;;;;;26.00;42.30;;;;;;682965;29;791;-86
2022/05/30 00:22:11;;;;;;;;;;;25.90;42.20;;;;;;682976;29;922;-85
2022/05/30 00:22:31;;;;;;;;;;;26.00;42.10;;;;;;683056;29;819;-81
2022/05/30 00:22:55;;;;;;;;;;;26.00;42.20;;;;;;680382;29;1635;-83
2022/05/30 00:23:15;;;;;;;;;;;26.00;42.20;;;;;;680412;29;955;-87
2022/05/30 00:23:36;;;;;;;;;;;26.00;42.30;;;;;;680004;29;982;-86
2022/05/30 00:23:56;;;;;;;;;;;26.00;42.30;;;;;;681679;28;977;-88
2022/05/30 00:24:17;;;;;;;;;;;26.00;42.30;;;;;;688076;28;890;-87
2022/05/30 00:24:38;;;;;;;;;;;26.00;42.20;;;;;;688383;28;923;-88
2022/05/30 00:24:58;;;;;;;;;;;26.00;43.40;;;;;;688577;28;815;-81
2022/05/30 00:25:19;;;;;;;;;;;25.90;42.20;;;;;;688743;28;1236;-86
2022/05/30 00:25:41;;;;;;;;;;;26.00;42.40;;;;;;691158;28;858;-85
2022/05/30 00:26:04;;;;;;;;;;;25.90;42.20;;;;;;691231;28;803;-89
2022/05/30 00:26:24;;;;;;;;;;;26.00;42.50;;;;;;691478;28;898;-88
2022/05/30 00:26:45;;;;;;;;;;;25.90;42.30;;;;;;691342;28;845;-86
2022/05/30 00:27:06;;;;;;;;;;;25.90;42.20;;;;;;691409;28;862;-86
2022/05/30 00:27:26;;;;;;;;;;;25.90;42.50;;;;;;691419;28;834;-85
2022/05/30 00:27:48;;;;;;;;;;;25.90;42.20;;;;;;690977;28;918;-84
2022/05/30 00:28:10;;;;;;;;;;;25.90;42.00;;;;;;691153;28;1425;-86
2022/05/30 00:28:30;;;;;;;;;;;25.90;42.10;;;;;;691033;28;859;-85
2022/05/30 00:28:51;;;;;;;;;;;25.90;42.20;;;;;;691238;28;795;-84
2022/05/30 00:29:12;;;;;;;;;;;25.90;42.30;;;;;;691146;28;803;-85
2022/05/30 00:29:33;;;;;;;;;;;27.10;43.20;;;;;;691201;28;794;-84
2022/05/30 00:29:54;;;;;;;;;;;25.90;42.30;;;;;;691261;28;1150;-84
2022/05/30 00:30:15;;;;;;;;;;;25.90;42.30;;;;;;691387;28;933;-86
2022/05/30 00:30:36;;;;;;;;;;;25.90;42.30;;;;;;691002;28;1292;-87
2022/05/30 00:30:56;;;;;;;;;;;25.90;42.50;;;;;;691388;28;810;-86
2022/05/30 00:31:18;;;;;;;;;;;25.90;42.80;;;;;;691375;28;910;-87
2022/05/30 00:31:39;;;;;;;;;;;25.90;42.60;;;;;;691204;28;1338;-83
2022/05/30 00:31:59;;;;;;;;;;;25.90;42.60;;;;;;691313;28;1914;-85
2022/05/30 00:32:22;;;;;;;;;;;25.90;42.50;;;;;;691460;28;881;-83
2022/05/30 00:32:43;;;;;;;;;;;25.90;42.50;;;;;;691142;28;1115;-83
2022/05/30 00:33:03;;;;;;;;;;;25.90;42.60;;;;;;691420;28;806;-87
2022/05/30 00:33:24;;;;;;;;;;;25.90;42.90;;;;;;691393;28;1043;-87
2022/05/30 00:33:45;;;;;;;;;;;25.90;42.50;;;;;;691368;28;926;-81
2022/05/30 00:34:05;;;;;;;;;;;25.90;42.70;;;;;;691335;28;837;-82
2022/05/30 00:34:26;;;;;;;;;;;25.90;42.80;;;;;;691379;28;957;-79
2022/05/30 00:34:47;;;;;;;;;;;25.80;42.60;;;;;;690896;28;1353;-81
2022/05/30 00:35:08;;;;;;;;;;;25.80;43.70;;;;;;691116;28;1785;-80
2022/05/30 00:35:32;;;;;;;;;;;25.80;43.60;;;;;;690996;28;1099;-80
2022/05/30 00:35:53;;;;;;;;;;;25.80;43.90;;;;;;690914;28;1435;-83
2022/05/30 00:36:13;;;;;;;;;;;26.00;47.60;;;;;;691171;28;736;-86
2022/05/30 00:36:34;;;;;;;;;;;25.80;46.60;;;;;;691144;28;886;-86
2022/05/30 00:36:55;;;;;;;;;;;25.80;48.30;;;;;;690000;28;1487;-84
2022/05/30 00:37:16;;;;;;;;;;;26.10;45.10;;;;;;688413;28;839;-85
2022/05/30 00:37:36;;;;;;;;;;;25.60;46.10;;;;;;690042;28;1231;-83
2022/05/30 00:37:57;;;;;;;;;;;26.10;48.60;;;;;;693984;28;973;-86
2022/05/30 00:38:18;;;;;;;;;;;25.80;43.20;;;;;;694072;28;883;-87
2022/05/30 00:38:39;;;;;;;;;;;25.80;43.00;;;;;;693530;28;949;-86
2022/05/30 00:38:59;;;;;;;;;;;25.80;43.10;;;;;;691124;28;1086;-86
2022/05/30 00:39:20;;;;;;;;;;;25.80;43.00;;;;;;691460;28;775;-81
2022/05/30 00:39:40;;;;;;;;;;;25.80;43.20;;;;;;691103;28;1106;-85
2022/05/30 00:40:01;;;;;;;;;;;25.80;43.00;;;;;;691434;28;799;-86
2022/05/30 00:40:22;;;;;;;;;;;25.80;42.80;;;;;;690635;28;1252;-85
2022/05/30 00:40:43;;;;;;;;;;;25.80;42.80;;;;;;691124;28;910;-85
2022/05/30 00:41:04;;;;;;;;;;;25.80;42.70;;;;;;690490;28;1079;-87
2022/05/30 00:41:26;;;;;;;;;;;25.80;42.80;;;;;;688374;28;1219;-84
2022/05/30 00:41:46;;;;;;;;;;;25.80;43.00;;;;;;686388;28;1158;-84
2022/05/30 00:42:15;;;;;;;;;;;26.00;43.10;;;;;;686340;28;846;-88
2022/05/30 00:42:36;;;;;;;;;;;25.80;42.90;;;;;;688392;28;914;-88
2022/05/30 00:43:16;;;;;;;;;;;25.80;42.80;;;;;;688766;28;1111;-82
2022/05/30 00:43:38;;;;;;;;;;;25.80;42.90;;;;;;688587;28;1083;-84
2022/05/30 00:44:00;;;;;;;;;;;25.80;43.00;;;;;;688623;28;1067;-85
2022/05/30 00:44:20;;;;;;;;;;;25.80;42.90;;;;;;688425;28;1336;-87
2022/05/30 00:44:42;;;;;;;;;;;25.80;43.00;;;;;;688407;28;979;-88
2022/05/30 00:45:03;;;;;;;;;;;25.80;42.90;;;;;;686165;28;1084;-86
2022/05/30 00:45:23;;;;;;;;;;;25.80;44.10;;;;;;685803;28;871;-86
2022/05/30 00:45:44;;;;;;;;;;;25.80;43.10;;;;;;685641;28;1088;-86
2022/05/30 00:46:12;;;;;;;;;;;25.80;43.00;;;;;;688401;28;1107;-88
2022/05/30 00:46:33;;;;;;;;;;;25.80;43.00;;;;;;691208;28;803;-85
2022/05/30 00:46:53;;;;;;;;;;;25.80;43.10;;;;;;691335;28;783;-87
2022/05/30 00:47:15;;;;;;;;;;;25.80;43.30;;;;;;691178;28;1074;-89
2022/05/30 00:47:36;;;;;;;;;;;25.80;43.10;;;;;;691265;28;1436;-90
2022/05/30 00:47:56;;;;;;;;;;;25.80;43.10;;;;;;691317;28;1224;-85
2022/05/30 00:48:18;;;;;;;;;;;25.80;43.00;;;;;;691430;28;791;-84
2022/05/30 00:48:50;;;;;;;;;;;25.80;43.10;;;;;;691308;28;763;-84
2022/05/30 00:49:11;;;;;;;;;;;25.80;43.10;;;;;;691203;28;1059;-82
2022/05/30 00:49:33;;;;;;;;;;;25.80;43.10;;;;;;691339;28;953;-86
2022/05/30 00:49:54;;;;;;;;;;;26.10;43.30;;;;;;691316;28;1153;-81
2022/05/30 00:50:15;;;;;;;;;;;25.70;43.00;;;;;;691268;28;1360;-83
2022/05/30 00:50:37;;;;;;;;;;;25.70;43.00;;;;;;691349;28;784;-83
2022/05/30 00:51:00;;;;;;;;;;;25.70;43.00;;;;;;691389;28;905;-85
2022/05/30 00:51:22;;;;;;;;;;;25.80;43.30;;;;;;691302;28;1051;-85
2022/05/30 00:51:45;;;;;;;;;;;25.70;43.20;;;;;;691398;28;834;-83
2022/05/30 00:52:09;;;;;;;;;;;25.70;43.30;;;;;;690644;28;1144;-88
2022/05/30 00:52:37;;;;;;;;;;;25.70;43.10;;;;;;691497;28;819;-89
2022/05/30 00:52:57;;;;;;;;;;;25.70;43.20;;;;;;691405;28;976;-88
2022/05/30 00:53:20;;;;;;;;;;;25.70;43.10;;;;;;691156;28;1288;-80
2022/05/30 00:53:42;;;;;;;;;;;25.70;43.10;;;;;;691411;28;877;-81
2022/05/30 00:54:04;;;;;;;;;;;25.70;43.30;;;;;;691149;28;1200;-81
2022/05/30 00:54:27;;;;;;;;;;;25.70;43.30;;;;;;689837;28;1465;-84
2022/05/30 00:54:58;;;;;;;;;;;25.70;43.40;;;;;;691360;28;874;-81
2022/05/30 00:55:20;;;;;;;;;;;25.70;43.30;;;;;;691341;28;1150;-83
2022/05/30 00:55:43;;;;;;;;;;;25.70;43.10;;;;;;691406;28;922;-84
2022/05/30 00:56:05;;;;;;;;;;;25.70;43.10;;;;;;691060;28;875;-82
2022/05/30 00:56:28;;;;;;;;;;;25.70;43.10;;;;;;691208;28;1241;-84
2022/05/30 00:56:50;;;;;;;;;;;25.70;43.30;;;;;;691422;28;933;-83
2022/05/30 00:57:20;;;;;;;;;;;25.70;43.20;;;;;;691005;28;1164;-83
2022/05/30 00:57:41;;;;;;;;;;;25.70;43.10;;;;;;691308;28;810;-81
2022/05/30 00:58:02;;;;;;;;;;;25.70;43.20;;;;;;691256;28;865;-83
2022/05/30 00:58:25;;;;;;;;;;;25.70;43.30;;;;;;691210;28;1236;-83
2022/05/30 00:58:48;;;;;;;;;;;25.70;43.20;;;;;;691335;28;866;-84
2022/05/30 00:59:09;;;;;;;;;;;25.70;43.30;;;;;;691893;28;1307;-81
2022/05/30 00:59:30;;;;;;;;;;;25.70;43.50;;;;;;691037;28;830;-84
2022/05/30 00:59:54;;;;;;;;;;;25.70;43.50;;;;;;688163;28;1538;-86
2022/05/30 01:00:20;;;;;;;;;;;25.70;43.50;;;;;;688437;28;1198;-84
2022/05/30 01:00:40;;;;;;;;;;;25.70;43.30;;;;;;691131;28;877;-81
2022/05/30 01:01:01;;;;;;;;;;;25.70;43.40;;;;;;691137;28;799;-83
2022/05/30 01:01:22;;;;;;;;;;;25.70;43.70;;;;;;691035;28;1099;-82
2022/05/30 01:01:42;;;;;;;;;;;24.60;43.10;;;;;;691310;28;854;-88
2022/05/30 01:02:07;;;;;;;;;;;25.70;43.70;;;;;;691268;28;1357;-87
2022/05/30 01:02:29;;;;;;;;;;;25.70;44.20;;;;;;691212;28;988;-82
2022/05/30 01:06:49;;;;;;;;;;;25.60;43.40;;;;;;691362;28;1190;-82
2022/05/30 01:07:10;;;;;;;;;;;25.60;43.30;;;;;;690883;28;1104;-82
2022/05/30 01:07:32;;;;;;;;;;;25.60;43.30;;;;;;691013;28;1421;-83
2022/05/30 01:07:52;;;;;;;;;;;25.60;43.40;;;;;;691501;28;853;-83
2022/05/30 01:08:13;;;;;;;;;;;25.60;43.20;;;;;;691317;28;944;-82
2022/05/30 01:08:34;;;;;;;;;;;25.60;43.30;;;;;;691159;28;893;-85
2022/05/30 01:08:54;;;;;;;;;;;25.60;43.60;;;;;;691328;28;1173;-82
2022/05/30 01:09:20;;;;;;;;;;;25.60;43.40;;;;;;691290;28;1218;-83
2022/05/30 01:09:41;;;;;;;;;;;25.60;43.40;;;;;;688588;28;782;-84
2022/05/30 01:10:03;;;;;;;;;;;25.60;43.60;;;;;;688631;28;819;-83
2022/05/30 01:10:23;;;;;;;;;;;25.60;43.70;;;;;;688732;28;881;-83
2022/05/30 01:10:44;;;;;;;;;;;25.60;43.70;;;;;;688561;28;787;-85
2022/05/30 01:11:04;;;;;;;;;;;25.60;43.80;;;;;;690501;28;1313;-82
2022/05/30 01:11:25;;;;;;;;;;;25.60;43.80;;;;;;691193;28;918;-86
2022/05/30 01:12:05;;;;;;;;;;;25.60;43.70;;;;;;691336;28;1967;-86
2022/05/30 01:12:37;;;;;;;;;;;25.60;43.40;;;;;;691119;28;842;-85
2022/05/30 01:12:57;;;;;;;;;;;25.60;43.20;;;;;;690345;28;1181;-85
2022/05/30 01:13:18;;;;;;;;;;;25.60;43.20;;;;;;691446;28;882;-82
2022/05/30 01:13:40;;;;;;;;;;;25.60;43.20;;;;;;691131;28;1296;-82
2022/05/30 01:14:00;;;;;;;;;;;25.60;43.40;;;;;;691257;28;841;-84
2022/05/30 01:14:21;;;;;;;;;;;25.60;43.20;;;;;;690691;28;1334;-88
2022/05/30 01:14:43;;;;;;;;;;;25.60;43.30;;;;;;691116;28;890;-83
2022/05/30 01:15:04;;;;;;;;;;;25.60;43.30;;;;;;690474;28;1060;-84
2022/05/30 01:15:26;;;;;;;;;;;25.60;43.20;;;;;;690973;28;1279;-84
2022/05/30 01:15:47;;;;;;;;;;;25.60;43.20;;;;;;688752;28;1106;-84
2022/05/30 01:16:07;;;;;;;;;;;25.70;43.30;;;;;;688373;28;783;-85
2022/05/30 01:16:28;;;;;;;;;;;25.60;43.20;;;;;;688616;28;795;-82
2022/05/30 01:16:50;;;;;;;;;;;25.60;43.40;;;;;;688613;28;819;-83
2022/05/30 01:17:12;;;;;;;;;;;25.70;43.20;;;;;;689101;28;1422;-83
2022/05/30 01:17:34;;;;;;;;;;;25.70;43.20;;;;;;689114;28;1319;-85
2022/05/30 01:17:58;;;;;;;;;;;25.70;43.30;;;;;;691070;28;1202;-83
2022/05/30 01:18:21;;;;;;;;;;;25.70;43.20;;;;;;691376;28;814;-85
2022/05/30 01:18:45;;;;;;;;;;;25.70;43.30;;;;;;690635;28;916;-86
2022/05/30 01:19:08;;;;;;;;;;;25.70;43.40;;;;;;691059;28;810;-88
2022/05/30 01:19:37;;;;;;;;;;;27.00;44.30;;;;;;690537;28;1311;-88
2022/05/30 01:20:26;;;;;;;;;;;25.70;43.20;;;;;;688373;28;1135;-83
2022/05/30 01:20:56;;;;;;;;;;;25.70;43.20;;;;;;688265;28;831;-88
2022/05/30 01:21:42;;;;;;;;;;;25.70;43.10;;;;;;687743;28;1507;-87
2022/05/30 01:22:11;;;;;;;;;;;25.70;43.10;;;;;;684532;28;1971;-86
2022/05/30 01:22:37;;;;;;;;;;;25.70;43.00;;;;;;688357;28;783;-86
2022/05/30 01:23:20;;;;;;;;;;;25.70;42.90;;;;;;688421;28;969;-86
2022/05/30 01:23:59;;;;;;;;;;;25.70;42.90;;;;;;688363;28;921;-88
2022/05/30 01:24:43;;;;;;;;;;;25.70;43.00;;;;;;688371;28;910;-87
2022/05/30 01:25:03;;;;;;;;;;;25.70;43.00;;;;;;677665;29;1121;-88
2022/05/30 01:25:42;;;;;;;;;;;25.70;42.80;;;;;;677999;29;1379;-87
2022/05/30 01:26:26;;;;;;;;;;;25.70;42.80;;;;;;676917;29;1369;-86
2022/05/30 01:26:54;;;;;;;;;;;25.70;42.80;;;;;;669947;29;990;-87
2022/05/30 01:27:17;;;;;;;;;;;24.90;42.20;;;;;;670143;29;852;-87
2022/05/30 01:27:53;;;;;;;;;;;25.80;42.90;;;;;;669547;29;1307;-86
2022/05/30 01:28:28;;;;;;;;;;;25.80;42.90;;;;;;669675;29;1316;-85
2022/05/30 01:28:55;;;;;;;;;;;25.70;42.70;;;;;;667943;29;928;-84
2022/05/30 01:29:25;;;;;;;;;;;25.80;42.80;;;;;;667945;29;948;-84
2022/05/30 01:29:49;;;;;;;;;;;25.70;42.70;;;;;;669623;29;1394;-84
2022/05/30 01:30:14;;;;;;;;;;;25.80;43.00;;;;;;669636;29;1426;-83
2022/05/30 01:30:35;;;;;;;;;;;25.80;43.00;;;;;;667770;29;749;-88
2022/05/30 01:30:56;;;;;;;;;;;25.70;43.00;;;;;;668166;29;1124;-87
2022/05/30 01:31:16;;;;;;;;;;;25.80;44.20;;;;;;668355;29;804;-89
2022/05/30 01:31:37;;;;;;;;;;;25.80;43.00;;;;;;669072;29;1178;-84
2022/05/30 01:31:58;;;;;;;;;;;25.80;43.10;;;;;;669897;29;1927;-84
2022/05/30 01:32:20;;;;;;;;;;;25.70;43.00;;;;;;670468;29;1093;-86
2022/05/30 01:32:41;;;;;;;;;;;25.80;43.10;;;;;;670755;29;950;-82
2022/05/30 01:33:01;;;;;;;;;;;25.80;43.10;;;;;;670360;29;848;-83
2022/05/30 01:33:22;;;;;;;;;;;25.80;43.10;;;;;;670526;29;1011;-82
2022/05/30 01:33:43;;;;;;;;;;;25.80;43.20;;;;;;669434;29;1241;-82
2022/05/30 01:34:04;;;;;;;;;;;25.80;43.10;;;;;;671430;29;1189;-86
2022/05/30 01:34:25;;;;;;;;;;;25.80;43.10;;;;;;670309;29;864;-88
2022/05/30 01:34:46;;;;;;;;;;;25.80;43.00;;;;;;670017;29;931;-82
2022/05/30 01:35:07;;;;;;;;;;;25.80;43.30;;;;;;669824;29;1186;-86
2022/05/30 01:35:28;;;;;;;;;;;25.80;43.00;;;;;;670097;29;1186;-85
2022/05/30 01:35:49;;;;;;;;;;;25.80;43.00;;;;;;668484;29;1320;-86
2022/05/30 01:36:10;;;;;;;;;;;25.80;43.10;;;;;;669434;29;1271;-84
2022/05/30 01:36:31;;;;;;;;;;;25.80;42.90;;;;;;670354;29;903;-81
2022/05/30 01:36:52;;;;;;;;;;;25.80;42.80;;;;;;669612;29;860;-86
2022/05/30 01:37:13;;;;;;;;;;;25.80;43.00;;;;;;667869;29;985;-81
2022/05/30 01:37:34;;;;;;;;;;;25.80;42.80;;;;;;667567;29;805;-81
2022/05/30 01:37:56;;;;;;;;;;;25.80;42.80;;;;;;668961;29;1262;-83
2022/05/30 01:38:16;;;;;;;;;;;25.80;42.90;;;;;;668702;29;1185;-82
2022/05/30 01:38:37;;;;;;;;;;;25.80;43.10;;;;;;670245;29;819;-82
2022/05/30 01:38:58;;;;;;;;;;;25.80;42.90;;;;;;670194;29;1096;-83
2022/05/30 01:39:18;;;;;;;;;;;25.80;43.70;;;;;;670247;29;852;-83
2022/05/30 01:39:39;;;;;;;;;;;25.80;43.10;;;;;;670190;29;805;-81
2022/05/30 01:40:00;;;;;;;;;;;25.80;43.10;;;;;;669892;29;1439;-87
2022/05/30 01:40:20;;;;;;;;;;;25.80;43.80;;;;;;669519;29;3787;-82
2022/05/30 01:40:41;;;;;;;;;;;25.80;43.00;;;;;;669931;29;871;-84
2022/05/30 01:41:02;;;;;;;;;;;25.80;42.90;;;;;;669876;29;849;-83
2022/05/30 01:41:23;;;;;;;;;;;25.80;42.90;;;;;;670024;29;820;-86
2022/05/30 01:41:43;;;;;;;;;;;25.80;43.00;;;;;;670024;29;836;-86
2022/05/30 01:42:05;;;;;;;;;;;25.80;43.00;;;;;;669988;29;860;-84
2022/05/30 01:42:25;;;;;;;;;;;25.80;42.90;;;;;;670076;29;915;-87
2022/05/30 01:42:46;;;;;;;;;;;25.80;43.00;;;;;;669508;29;1311;-88
2022/05/30 01:43:06;;;;;;;;;;;25.80;43.10;;;;;;669989;29;876;-84
2022/05/30 01:43:27;;;;;;;;;;;25.90;43.00;;;;;;670013;29;868;-89
2022/05/30 01:43:48;;;;;;;;;;;25.80;42.90;;;;;;670282;29;1128;-85
2022/05/30 01:44:08;;;;;;;;;;;25.80;42.90;;;;;;669943;29;884;-88
2022/05/30 01:44:29;;;;;;;;;;;25.80;44.30;;;;;;669953;29;840;-87
2022/05/30 01:44:49;;;;;;;;;;;25.80;43.00;;;;;;670059;29;871;-87
2022/05/30 01:45:10;;;;;;;;;;;25.80;42.90;;;;;;669936;29;880;-88
2022/05/30 01:45:32;;;;;;;;;;;25.80;42.70;;;;;;669944;29;995;-90
2022/05/30 01:45:53;;;;;;;;;;;25.80;42.70;;;;;;669966;29;1364;-86
2022/05/30 01:46:15;;;;;;;;;;;25.80;42.70;;;;;;669911;29;907;-85
2022/05/30 01:46:36;;;;;;;;;;;25.80;42.70;;;;;;670068;29;856;-86
2022/05/30 01:46:57;;;;;;;;;;;25.80;42.80;;;;;;669891;29;1174;-88
2022/05/30 01:47:17;;;;;;;;;;;25.80;42.80;;;;;;669912;29;1337;-88
2022/05/30 01:47:38;;;;;;;;;;;25.80;43.00;;;;;;670007;29;871;-85
2022/05/30 01:47:58;;;;;;;;;;;25.80;42.90;;;;;;670001;29;931;-89
2022/05/30 01:48:19;;;;;;;;;;;25.80;42.90;;;;;;670078;29;937;-90
2022/05/30 01:48:40;;;;;;;;;;;25.80;43.00;;;;;;669992;29;864;-88
2022/05/30 01:49:00;;;;;;;;;;;25.80;42.90;;;;;;669974;29;991;-89
2022/05/30 01:49:21;;;;;;;;;;;25.70;42.70;;;;;;670130;29;847;-89
2022/05/30 01:49:42;;;;;;;;;;;25.80;42.80;;;;;;669912;29;840;-90
2022/05/30 01:50:08;;;;;;;;;;;25.80;43.00;;;;;;667232;29;1384;-90
2022/05/30 01:50:29;;;;;;;;;;;24.20;42.00;;;;;;667548;29;785;-87
2022/05/30 01:50:49;;;;;;;;;;;25.80;43.30;;;;;;667468;29;982;-89
2022/05/30 01:51:11;;;;;;;;;;;25.70;43.00;;;;;;667447;29;863;-90
2022/05/30 01:51:32;;;;;;;;;;;25.70;43.00;;;;;;667345;29;918;-90
2022/05/30 01:51:54;;;;;;;;;;;25.70;43.00;;;;;;668488;29;1945;-88
2022/05/30 01:52:16;;;;;;;;;;;25.80;42.90;;;;;;669671;29;1410;-90
2022/05/30 01:52:37;;;;;;;;;;;25.70;42.70;;;;;;669962;29;824;-90
2022/05/30 01:52:57;;;;;;;;;;;25.70;42.80;;;;;;669921;29;793;-90
2022/05/30 01:53:18;;;;;;;;;;;25.70;42.80;;;;;;669919;29;1234;-88
2022/05/30 01:53:39;;;;;;;;;;;25.70;43.10;;;;;;669996;29;924;-86
2022/05/30 01:54:01;;;;;;;;;;;25.70;43.00;;;;;;669854;29;1348;-87
2022/05/30 01:54:22;;;;;;;;;;;25.70;42.90;;;;;;670008;29;903;-89
2022/05/30 01:54:42;;;;;;;;;;;25.70;43.10;;;;;;667038;29;1316;-84
2022/05/30 01:55:03;;;;;;;;;;;25.60;43.10;;;;;;667334;29;935;-86
2022/05/30 01:55:25;;;;;;;;;;;25.70;42.90;;;;;;667359;29;1153;-88
2022/05/30 01:55:45;;;;;;;;;;;25.70;42.80;;;;;;667448;29;872;-84
2022/05/30 01:56:06;;;;;;;;;;;25.60;43.00;;;;;;667429;29;876;-83
2022/05/30 01:56:29;;;;;;;;;;;25.70;43.20;;;;;;667771;29;812;-84
2022/05/30 01:56:50;;;;;;;;;;;25.70;43.20;;;;;;670057;29;860;-89
2022/05/30 01:57:11;;;;;;;;;;;25.60;43.20;;;;;;669934;29;816;-89
2022/05/30 01:57:31;;;;;;;;;;;25.70;43.30;;;;;;669864;29;1316;-87
2022/05/30 01:57:52;;;;;;;;;;;25.60;43.20;;;;;;670086;29;841;-87
2022/05/30 01:58:13;;;;;;;;;;;25.60;43.20;;;;;;668735;29;1042;-86
2022/05/30 01:58:34;;;;;;;;;;;25.70;44.40;;;;;;667633;29;813;-82
2022/05/30 01:58:54;;;;;;;;;;;25.60;43.20;;;;;;667525;29;766;-86
2022/05/30 01:59:15;;;;;;;;;;;25.60;43.40;;;;;;667283;29;869;-84
2022/05/30 01:59:36;;;;;;;;;;;25.60;43.10;;;;;;667468;29;860;-84
2022/05/30 01:59:57;;;;;;;;;;;25.60;43.00;;;;;;667479;29;1486;-86
2022/05/30 02:00:17;;;;;;;;;;;25.70;43.20;;;;;;667399;29;777;-85
2022/05/30 02:00:38;;;;;;;;;;;25.60;43.20;;;;;;667318;29;896;-84
2022/05/30 02:01:01;;;;;;;;;;;25.60;43.10;;;;;;667435;29;864;-85
2022/05/30 02:01:24;;;;;;;;;;;25.60;43.10;;;;;;667491;29;884;-84
2022/05/30 02:01:47;;;;;;;;;;;25.60;43.30;;;;;;667400;29;888;-89
2022/05/30 02:02:08;;;;;;;;;;;25.60;43.60;;;;;;667659;29;1418;-88
2022/05/30 02:02:29;;;;;;;;;;;25.60;43.20;;;;;;667439;29;841;-87
2022/05/30 02:02:49;;;;;;;;;;;25.60;43.40;;;;;;667523;29;797;-88
2022/05/30 02:03:10;;;;;;;;;;;25.60;43.50;;;;;;675928;29;968;-89
2022/05/30 02:03:33;;;;;;;;;;;25.60;43.40;;;;;;680072;29;1422;-86
2022/05/30 02:03:54;;;;;;;;;;;25.60;43.40;;;;;;680425;29;987;-87
2022/05/30 02:04:16;;;;;;;;;;;25.60;43.50;;;;;;680282;29;958;-87
2022/05/30 02:04:36;;;;;;;;;;;25.60;43.60;;;;;;680349;29;792;-87
2022/05/30 02:04:57;;;;;;;;;;;25.60;43.60;;;;;;687443;28;1106;-85
2022/05/30 02:05:18;;;;;;;;;;;25.60;43.70;;;;;;688362;28;1096;-86
2022/05/30 02:05:40;;;;;;;;;;;25.60;43.50;;;;;;688437;28;842;-87
2022/05/30 02:06:01;;;;;;;;;;;25.60;43.50;;;;;;688366;28;846;-84
2022/05/30 02:06:23;;;;;;;;;;;25.60;43.40;;;;;;688396;28;819;-88
2022/05/30 02:06:46;;;;;;;;;;;25.60;43.30;;;;;;688405;28;838;-88
2022/05/30 02:07:07;;;;;;;;;;;25.60;43.20;;;;;;688458;28;902;-87
2022/05/30 02:07:27;;;;;;;;;;;25.60;43.20;;;;;;688561;28;1047;-85
2022/05/30 02:07:48;;;;;;;;;;;25.60;43.30;;;;;;688759;28;854;-89
2022/05/30 02:08:08;;;;;;;;;;;25.60;43.40;;;;;;688607;28;922;-89
2022/05/30 02:08:29;;;;;;;;;;;25.60;43.50;;;;;;691015;28;1324;-89
2022/05/30 02:08:50;;;;;;;;;;;25.60;43.60;;;;;;691115;28;1237;-89
2022/05/30 02:09:10;;;;;;;;;;;25.60;43.80;;;;;;691134;28;838;-88
2022/05/30 02:09:31;;;;;;;;;;;25.60;43.70;;;;;;691084;28;713;-89
2022/05/30 02:09:51;;;;;;;;;;;25.60;43.60;;;;;;691176;28;811;-87
2022/05/30 02:10:12;;;;;;;;;;;25.60;43.40;;;;;;691111;28;878;-87
2022/05/30 02:10:33;;;;;;;;;;;25.60;43.50;;;;;;691270;28;803;-89
2022/05/30 02:10:53;;;;;;;;;;;25.60;43.50;;;;;;691513;28;842;-88
2022/05/30 02:11:16;;;;;;;;;;;25.60;43.60;;;;;;691266;28;922;-86
2022/05/30 02:11:37;;;;;;;;;;;25.60;43.50;;;;;;691133;28;897;-90
2022/05/30 02:11:57;;;;;;;;;;;25.60;43.60;;;;;;691415;28;1955;-84
2022/05/30 02:12:18;;;;;;;;;;;25.60;43.70;;;;;;691282;28;878;-85
2022/05/30 02:12:38;;;;;;;;;;;25.60;43.60;;;;;;691234;28;878;-87
2022/05/30 02:13:00;;;;;;;;;;;25.60;43.60;;;;;;691233;28;918;-88
2022/05/30 02:13:21;;;;;;;;;;;25.60;43.50;;;;;;691484;28;507;-89
2022/05/30 02:13:42;;;;;;;;;;;25.60;43.50;;;;;;691212;28;874;-86
2022/05/30 02:14:03;;;;;;;;;;;25.60;43.50;;;;;;691311;28;937;-86
2022/05/30 02:14:24;;;;;;;;;;;25.60;43.50;;;;;;691436;28;854;-90
2022/05/30 02:14:46;;;;;;;;;;;25.60;43.40;;;;;;691294;28;826;-87
2022/05/30 02:15:06;;;;;;;;;;;25.50;43.50;;;;;;691271;28;831;-87
2022/05/30 02:15:27;;;;;;;;;;;25.50;43.50;;;;;;691355;28;882;-90
2022/05/30 02:17:06;;;;;;;;;;;25.50;43.20;;;;;;693889;28;696;-89
2022/05/30 02:17:27;;;;;;;;;;;25.50;43.80;;;;;;693875;28;881;-87
2022/05/30 02:17:55;;;;;;;;;;;25.50;43.60;;;;;;691531;28;1453;-86
2022/05/30 02:18:16;;;;;;;;;;;25.60;43.60;;;;;;691293;28;886;-84
2022/05/30 02:18:37;;;;;;;;;;;25.50;43.50;;;;;;691001;28;1218;-83
2022/05/30 02:18:58;;;;;;;;;;;25.50;43.60;;;;;;691094;28;760;-82